Time;durP1;ratioP1;P1;durP2;ratioP2;P2;SDS_P1;SDS_P2;PMS_P1;PMS_P2;Temp;Humidity;BMP_temperature;BMP_pressure;BME280_temperature;BME280_humidity;BME280_pressure;Samples;Min_cycle;Max_cycle;Signal;HPM_P1;HPM_P2
2021/11/12 00:13:12;;;;;;;93.60;34.67;;;;;;;4.54;84.11;101053.16;5032450;28;20889;-79
2021/11/12 00:15:47;;;;;;;68.80;30.83;;;;;;;4.52;84.64;101063.22;5031322;28;20705;-79
2021/11/12 00:18:13;;;;;;;109.15;34.90;;;;;;;4.50;84.63;101058.06;5029066;28;20418;-79
2021/11/12 00:20:38;;;;;;;68.47;31.40;;;;;;;4.49;84.13;101048.34;5032017;28;20427;-79
2021/11/12 00:23:04;;;;;;;86.55;32.03;;;;;;;4.43;84.16;101046.44;5032245;28;20525;-79
2021/11/12 00:25:29;;;;;;;72.43;29.00;;;;;;;4.41;85.20;101044.97;5031619;28;20399;-79
2021/11/12 00:27:54;;;;;;;83.07;31.57;;;;;;;4.39;84.95;101047.00;5029154;28;20418;-79
2021/11/12 00:30:29;;;;;;;74.47;31.53;;;;;;;4.42;85.36;101049.28;5031937;28;20489;-79
2021/11/12 00:35:34;;;;;;;78.97;29.23;;;;;;;4.40;84.50;101043.28;5029836;28;20790;-79
2021/11/12 00:40:33;;;;;;;102.03;30.40;;;;;;;4.40;84.39;101037.94;5032033;28;20418;-79
2021/11/12 00:45:30;;;;;;;106.90;31.38;;;;;;;4.42;84.27;101043.94;5031429;28;20407;-79
2021/11/12 00:48:10;;;;;;;78.07;30.23;;;;;;;4.42;84.32;101046.59;5029047;28;20415;-79
2021/11/12 00:50:55;;;;;;;80.03;28.92;;;;;;;4.41;84.75;101040.41;5027841;28;20486;-79
2021/11/12 00:55:46;;;;;;;121.40;31.70;;;;;;;4.38;84.30;101035.41;5031465;28;20395;-79
2021/11/12 00:58:16;;;;;;;79.73;29.87;;;;;;;4.40;84.00;101040.63;5020250;28;20407;-79
2021/11/12 01:00:43;;;;;;;78.60;28.35;;;;;;;4.36;84.10;101033.97;5031068;28;20477;-79
2021/11/12 01:03:08;;;;;;;76.75;28.83;;;;;;;4.38;84.35;101037.31;5031462;28;20797;-79
2021/11/12 01:05:34;;;;;;;63.60;27.23;;;;;;;4.39;84.86;101025.53;5031339;28;20405;-79
2021/11/12 01:08:00;;;;;;;61.50;28.30;;;;;;;4.44;85.09;101029.31;5030138;28;20418;-79
2021/11/12 01:10:27;;;;;;;88.78;28.63;;;;;;;4.45;84.82;101025.59;5031433;28;20453;-79
2021/11/12 01:12:53;;;;;;;100.75;29.23;;;;;;;4.43;84.76;101024.97;5030569;28;21022;-79
2021/11/12 01:15:20;;;;;;;64.50;26.73;;;;;;;4.40;85.05;101021.81;5031388;28;20403;-79
2021/11/12 01:17:46;;;;;;;64.53;27.02;;;;;;;4.43;84.91;101018.75;5029949;28;20486;-79
2021/11/12 01:20:15;;;;;;;80.22;27.27;;;;;;;4.47;84.89;101014.69;5031031;28;21008;-79
2021/11/12 01:22:42;;;;;;;73.13;28.75;;;;;;;4.45;85.00;101011.34;5030498;28;20402;-79
2021/11/12 01:25:11;;;;;;;71.43;27.67;;;;;;;4.46;84.91;101007.63;5031281;28;20430;-79
2021/11/12 01:27:38;;;;;;;72.57;27.90;;;;;;;4.48;84.50;101009.09;5026890;28;20407;-79
2021/11/12 01:30:04;;;;;;;96.55;27.83;;;;;;;4.41;83.93;101008.19;5031075;28;20505;-79
2021/11/12 01:32:31;;;;;;;89.53;28.87;;;;;;;4.38;84.30;101005.09;5024119;28;20406;-79
2021/11/12 01:34:59;;;;;;;78.07;27.50;;;;;;;4.53;83.72;101014.75;5031377;28;20437;-79
2021/11/12 01:37:26;;;;;;;90.25;28.40;;;;;;;4.53;83.64;101004.00;5029146;28;20493;-79
2021/11/12 01:39:56;;;;;;;66.90;28.83;;;;;;;4.36;84.73;100996.41;5030876;28;20502;-79
2021/11/12 01:42:24;;;;;;;68.55;28.75;;;;;;;4.42;84.50;100999.13;5029233;28;20395;-79
2021/11/12 01:45:07;;;;;;;71.25;26.33;;;;;;;4.22;85.57;101006.16;5031290;28;20382;-79
2021/11/12 01:47:42;;;;;;;85.37;27.93;;;;;;;4.06;85.88;101004.53;5028772;28;20450;-79
2021/11/12 01:50:12;;;;;;;82.53;29.23;;;;;;;4.02;85.82;101005.94;5027126;28;20383;-79
2021/11/12 01:52:47;;;;;;;73.70;27.75;;;;;;;4.05;85.70;100994.81;5031150;28;20859;-79
2021/11/12 01:55:37;;;;;;;77.68;26.35;;;;;;;4.09;85.31;101003.31;5030663;28;20485;-79
2021/11/12 02:00:35;;;;;;;58.28;25.95;;;;;;;4.12;84.97;101003.78;5029564;28;21198;-79
2021/11/12 02:03:00;;;;;;;65.57;27.17;;;;;;;4.17;85.27;100996.00;5030065;28;20426;-79
2021/11/12 02:05:26;;;;;;;72.30;28.60;;;;;;;4.14;85.18;100999.06;5027844;28;20920;-79
2021/11/12 02:07:53;;;;;;;82.72;28.00;;;;;;;4.14;85.49;100992.88;5029607;28;20873;-79
2021/11/12 02:10:22;;;;;;;98.80;28.33;;;;;;;4.13;85.12;100986.69;5029177;28;20411;-78
2021/11/12 02:15:16;;;;;;;63.15;27.40;;;;;;;4.13;84.77;100989.38;5030718;28;20391;-79
2021/11/12 02:17:46;;;;;;;67.63;27.58;;;;;;;4.11;85.06;100988.72;5030448;28;20413;-79
2021/11/12 02:20:18;;;;;;;87.80;27.08;;;;;;;4.09;85.06;100990.75;5026585;28;20441;-79
2021/11/12 02:22:45;;;;;;;66.18;26.13;;;;;;;4.03;85.22;100985.31;5028736;28;20395;-79
2021/11/12 02:25:20;;;;;;;85.07;29.20;;;;;;;3.96;85.73;100979.88;5030747;28;20391;-79
2021/11/12 02:27:56;;;;;;;71.05;27.85;;;;;;;3.96;85.95;100979.88;5030254;28;20509;-79
2021/11/12 02:30:24;;;;;;;77.33;26.00;;;;;;;3.94;85.36;100981.94;5026399;28;20524;-79
2021/11/12 02:33:21;;;;;;;81.15;27.67;;;;;;;3.95;85.58;100988.94;5013613;28;20416;-78
2021/11/12 02:36:11;;;;;;;70.55;27.00;;;;;;;3.97;84.94;100981.56;5013912;28;20549;-79
2021/11/12 02:38:42;;;;;;;55.25;26.27;;;;;;;4.00;85.12;100974.97;5031197;28;20410;-79
2021/11/12 02:41:07;;;;;;;71.50;26.02;;;;;;;4.06;85.87;100971.53;5029924;28;20412;-79
2021/11/12 02:43:34;;;;;;;76.78;26.48;;;;;;;4.09;85.10;100976.50;5034172;28;20402;-79
2021/11/12 02:46:02;;;;;;;67.20;26.05;;;;;;;4.07;85.15;100965.16;5033962;28;20434;-79
2021/11/12 02:48:35;;;;;;;60.85;24.50;;;;;;;4.04;84.78;100965.53;5033322;28;21007;-79
2021/11/12 02:51:01;;;;;;;72.43;26.63;;;;;;;4.02;85.13;100967.56;5032737;28;20411;-79
2021/11/12 02:53:27;;;;;;;53.15;25.75;;;;;;;4.02;85.27;100957.66;5033736;28;20489;-79
2021/11/12 02:55:52;;;;;;;52.42;24.77;;;;;;;4.09;85.14;100963.09;5033935;28;20471;-79
2021/11/12 02:58:19;;;;;;;64.60;25.45;;;;;;;4.08;84.92;100964.13;5033525;28;20885;-79
2021/11/12 03:00:46;;;;;;;56.03;24.75;;;;;;;4.04;84.49;100966.38;5027803;28;20426;-79
2021/11/12 03:03:13;;;;;;;67.80;26.30;;;;;;;4.03;84.85;100958.50;5029529;28;20843;-79
2021/11/12 03:05:38;;;;;;;71.87;25.37;;;;;;;3.97;84.75;100956.59;5024130;28;20491;-79
2021/11/12 03:08:04;;;;;;;70.63;26.53;;;;;;;3.98;84.46;100966.28;5033573;28;20538;-79
2021/11/12 03:10:30;;;;;;;61.42;26.80;;;;;;;3.95;84.71;100967.47;5032530;28;20429;-79
2021/11/12 03:12:56;;;;;;;73.82;26.00;;;;;;;3.95;84.89;100969.38;5033042;28;20461;-78
2021/11/12 03:15:21;;;;;;;77.65;26.88;;;;;;;3.97;85.25;100967.31;5031938;28;20480;-78
2021/11/12 03:17:51;;;;;;;55.15;25.52;;;;;;;4.01;85.25;100968.59;5033524;28;20403;-78
2021/11/12 03:20:18;;;;;;;50.38;26.30;;;;;;;3.98;85.45;100968.97;5030546;28;20450;-79
2021/11/12 03:23:06;;;;;;;60.95;25.77;;;;;;;3.99;85.38;100962.56;5032248;28;20395;-79
2021/11/12 03:28:11;;;;;;;54.40;25.37;;;;;;;3.98;86.36;100967.13;5033382;28;20396;-79
2021/11/12 03:31:09;;;;;;;41.28;22.63;;;;;;;3.96;85.83;100969.16;5015708;28;20510;-79
2021/11/12 03:49:48;;;;;;;47.40;24.80;;;;;;;4.00;84.80;100967.75;5033100;28;20459;-79
2021/11/12 04:00:52;;;;;;;52.75;22.08;;;;;;;4.12;85.30;100952.00;5032730;28;20790;-79
2021/11/12 04:03:30;;;;;;;49.50;23.55;;;;;;;4.11;85.36;100948.50;5032448;28;20956;-79
2021/11/12 04:06:14;;;;;;;50.65;22.80;;;;;;;4.08;85.13;100943.50;5016368;28;20749;-79
2021/11/12 04:19:57;;;;;;;49.40;23.60;;;;;;;4.07;85.40;100949.91;5031609;28;20473;-79
2021/11/12 04:30:35;;;;;;;51.08;23.13;;;;;;;4.06;85.30;100944.72;5032410;28;20427;-78
2021/11/12 05:11:57;;;;;;;50.25;22.25;;;;;;;3.93;85.11;100940.03;5031573;28;20474;-78
2021/11/12 05:44:33;;;;;;;34.33;19.45;;;;;;;3.88;85.43;100930.91;5016599;28;20382;-79
2021/11/12 05:49:40;;;;;;;37.30;18.70;;;;;;;3.86;84.78;100925.72;5022408;28;20391;-79
2021/11/12 05:49:54;;;;;;;35.30;18.45;;;;;;;3.87;84.44;100911.31;5030991;28;20864;-79
2021/11/12 05:55:04;;;;;;;30.70;17.70;;;;;;;3.83;84.76;100912.72;5025436;28;20425;-80
2021/11/12 05:55:07;;;;;;;37.10;18.25;;;;;;;3.76;84.25;100908.28;5029456;28;20402;-79
2021/11/12 05:57:34;;;;;;;37.33;18.25;;;;;;;3.78;83.87;100911.63;5030581;28;20915;-79
2021/11/12 05:59:59;;;;;;;39.08;18.67;;;;;;;3.77;83.92;100912.63;5030936;28;20419;-78
2021/11/12 06:02:24;;;;;;;30.40;17.70;;;;;;;3.83;84.07;100904.66;5027059;28;20472;-78
2021/11/12 06:04:51;;;;;;;31.85;17.92;;;;;;;3.85;84.21;100901.81;5029521;28;20402;-79
2021/11/12 06:07:16;;;;;;;33.78;17.77;;;;;;;3.87;84.39;100900.59;5030356;28;20430;-79
2021/11/12 06:09:42;;;;;;;33.17;16.93;;;;;;;3.85;83.98;100899.97;5030278;28;20454;-80
2021/11/12 06:12:11;;;;;;;34.47;18.00;;;;;;;3.86;84.31;100898.91;5028463;28;20407;-79
2021/11/12 06:14:37;;;;;;;30.13;16.08;;;;;;;3.87;83.92;100903.28;5031860;28;20504;-79
2021/11/12 06:17:03;;;;;;;34.17;16.13;;;;;;;3.89;83.55;100890.50;5032874;28;20391;-79
2021/11/12 06:19:30;;;;;;;40.72;17.23;;;;;;;3.88;83.35;100906.78;5029633;28;20526;-77
2021/11/12 06:21:56;;;;;;;34.37;18.17;;;;;;;3.87;83.52;100889.03;5032893;28;20501;-80
2021/11/12 06:24:21;;;;;;;29.73;15.47;;;;;;;3.86;83.65;100892.72;5034376;28;20478;-79
2021/11/12 06:26:47;;;;;;;30.30;16.30;;;;;;;3.76;83.61;100890.34;5034691;28;20952;-78
2021/11/12 06:29:13;;;;;;;37.97;16.80;;;;;;;3.78;83.89;100896.38;5034161;28;20431;-79
2021/11/12 06:31:38;;;;;;;31.48;15.35;;;;;;;3.77;83.70;100905.44;5033481;28;20403;-79
2021/11/12 06:34:04;;;;;;;34.43;16.97;;;;;;;3.78;83.66;100904.41;5029585;28;20420;-78
2021/11/12 06:36:29;;;;;;;31.87;15.60;;;;;;;3.75;84.04;100917.38;5030419;28;20415;-78
2021/11/12 06:38:56;;;;;;;25.75;15.15;;;;;;;3.77;83.52;100909.94;5034186;28;20442;-77
2021/11/12 06:41:40;;;;;;;25.98;14.45;;;;;;;3.81;83.58;100897.84;5032337;28;20457;-79
2021/11/12 06:49:52;;;;;;;27.20;15.20;;;;;;;3.69;83.54;100892.13;5029139;28;20466;-80
2021/11/12 06:52:19;;;;;;;28.57;15.13;;;;;;;3.65;83.51;100893.56;5022272;28;20403;-80
2021/11/12 06:54:47;;;;;;;24.92;14.05;;;;;;;3.61;83.70;100898.47;5032029;28;20450;-80
2021/11/12 06:57:14;;;;;;;27.25;14.65;;;;;;;3.67;83.38;100904.91;5033377;28;20404;-79
2021/11/12 06:59:40;;;;;;;23.25;14.07;;;;;;;3.72;83.20;100904.34;5013307;28;20415;-80
2021/11/12 07:02:06;;;;;;;22.85;14.38;;;;;;;3.73;83.00;100906.81;5020614;28;20411;-82
2021/11/12 07:04:32;;;;;;;21.63;13.52;;;;;;;3.72;83.04;100907.88;5047542;28;20401;-80
2021/11/12 07:06:58;;;;;;;25.30;14.87;;;;;;;3.73;82.44;100901.47;5029321;28;20395;-80
2021/11/12 07:09:23;;;;;;;23.43;14.70;;;;;;;3.73;82.95;100904.13;5020998;28;20477;-79
2021/11/12 07:11:49;;;;;;;25.93;15.57;;;;;;;3.72;83.12;100897.13;5031024;28;20494;-80
2021/11/12 07:14:15;;;;;;;26.43;15.57;;;;;;;3.75;83.45;100903.97;5032493;28;20399;-79
2021/11/12 07:16:40;;;;;;;29.00;16.35;;;;;;;3.78;82.88;100898.22;5018810;28;20412;-79
2021/11/12 07:19:06;;;;;;;25.70;15.33;;;;;;;3.80;83.08;100896.16;5028980;28;20419;-79
2021/11/12 07:21:31;;;;;;;22.92;14.73;;;;;;;3.70;83.37;100907.19;5032652;28;20785;-80
2021/11/12 07:23:56;;;;;;;24.60;15.50;;;;;;;3.67;82.75;100894.19;5031880;28;20814;-80
2021/11/12 07:26:22;;;;;;;24.43;14.77;;;;;;;3.69;82.66;100896.69;5032890;28;20854;-85
2021/11/12 07:28:49;;;;;;;23.40;14.15;;;;;;;3.74;82.95;100902.28;5031771;28;20874;-80
2021/11/12 07:31:19;;;;;;;27.08;15.45;;;;;;;3.78;82.81;100899.06;5033013;28;20975;-80
2021/11/12 07:33:46;;;;;;;25.60;14.60;;;;;;;3.76;81.98;100908.28;5022348;28;20405;-80
2021/11/12 07:36:19;;;;;;;26.90;16.03;;;;;;;3.74;81.82;100916.53;5028902;28;20399;-80
2021/11/12 07:38:53;;;;;;;32.45;17.92;;;;;;;3.78;81.82;100919.66;5028594;28;20407;-80
2021/11/12 07:48:56;;;;;;;33.90;19.25;;;;;;;3.61;83.01;100916.38;5032781;28;20411;-80
2021/11/12 07:51:21;;;;;;;31.50;17.73;;;;;;;3.66;83.66;100922.81;5030404;28;20530;-81
2021/11/12 07:53:47;;;;;;;33.50;17.17;;;;;;;3.73;83.30;100924.75;5031549;28;20513;-80
2021/11/12 07:56:14;;;;;;;41.77;17.67;;;;;;;3.80;82.39;100920.28;5031033;28;20404;-81
2021/11/12 07:58:39;;;;;;;44.72;19.05;;;;;;;3.75;82.24;100912.00;5032974;28;20391;-81
2021/11/12 08:01:05;;;;;;;42.95;19.08;;;;;;;3.79;82.24;100916.78;5032105;28;20785;-81
2021/11/12 08:03:30;;;;;;;54.33;19.50;;;;;;;3.82;82.70;100913.72;5026426;28;20405;-81
2021/11/12 08:05:57;;;;;;;32.70;17.70;;;;;;;3.79;82.71;100913.28;5032169;28;20406;-81
2021/11/12 08:08:24;;;;;;;32.38;18.98;;;;;;;3.73;83.34;100905.97;5028237;28;20422;-80
2021/11/12 08:10:59;;;;;;;54.50;19.93;;;;;;;3.78;83.20;100914.31;5031550;28;20387;-80
2021/11/12 08:13:34;;;;;;;33.28;19.00;;;;;;;3.80;83.12;100898.84;5032308;28;20937;-80
2021/11/12 08:16:23;;;;;;;34.33;19.45;;;;;;;3.90;83.22;100908.25;5030775;28;20526;-80
2021/11/12 08:24:39;;;;;;;48.90;21.73;;;;;;;3.85;83.19;100912.53;5031559;28;20441;-81
2021/11/12 08:29:57;;;;;;;37.60;21.75;;;;;;;3.98;83.45;100918.88;5031924;28;20797;-80
2021/11/12 08:34:56;;;;;;;39.10;19.73;;;;;;;4.06;82.46;100913.34;5030827;28;20466;-80
2021/11/12 08:40:16;;;;;;;61.27;20.97;;;;;;;4.01;82.25;100909.59;5029588;28;20418;-80
2021/11/12 08:42:53;;;;;;;50.55;20.40;;;;;;;3.92;83.21;100905.38;5030506;28;20395;-80
2021/11/12 08:45:29;;;;;;;52.25;20.33;;;;;;;3.89;83.42;100901.22;5031843;28;20391;-80
2021/11/12 08:48:05;;;;;;;46.08;20.80;;;;;;;3.96;82.83;100901.28;5029465;28;20403;-80
2021/11/12 08:50:31;;;;;;;53.17;21.27;;;;;;;3.92;82.50;100900.03;5032159;28;20387;-80
2021/11/12 08:53:07;;;;;;;62.15;22.83;;;;;;;3.96;82.99;100902.13;5031896;28;20888;-80
2021/11/12 08:55:34;;;;;;;49.28;21.73;;;;;;;3.96;83.30;100899.44;5030475;28;20888;-80
2021/11/12 08:58:00;;;;;;;39.75;21.08;;;;;;;4.04;82.87;100893.13;5028710;28;20407;-81
2021/11/12 09:00:26;;;;;;;43.73;21.30;;;;;;;4.11;82.89;100886.81;5025729;28;20418;-80
2021/11/12 09:02:53;;;;;;;44.77;21.93;;;;;;;4.12;82.29;100887.63;5031839;28;20399;-80
2021/11/12 09:05:22;;;;;;;47.33;22.35;;;;;;;4.12;82.63;100883.09;5031468;28;20395;-78
2021/11/12 09:07:48;;;;;;;43.53;20.40;;;;;;;4.09;82.37;100891.53;5029427;28;20406;-79
2021/11/12 09:10:16;;;;;;;46.38;21.42;;;;;;;4.09;82.36;100885.31;5026688;28;20456;-78
2021/11/12 09:12:44;;;;;;;49.15;21.52;;;;;;;4.10;82.19;100898.56;5030163;28;20770;-78
2021/11/12 09:15:14;;;;;;;38.70;21.05;;;;;;;4.08;83.07;100897.09;5029898;28;20457;-78
2021/11/12 09:17:46;;;;;;;39.83;21.33;;;;;;;4.09;83.15;100902.25;5029705;28;20422;-79
2021/11/12 09:20:12;;;;;;;38.28;20.80;;;;;;;4.07;83.16;100896.25;5018249;28;20419;-78
2021/11/12 09:22:37;;;;;;;41.10;21.23;;;;;;;4.04;83.55;100888.59;5029566;28;20491;-79
2021/11/12 09:25:03;;;;;;;36.70;20.97;;;;;;;4.08;83.64;100889.03;5030988;28;20409;-78
2021/11/12 09:27:28;;;;;;;33.37;20.27;;;;;;;4.12;82.92;100875.03;5030934;28;20750;-78
2021/11/12 09:29:54;;;;;;;33.77;20.27;;;;;;;4.23;82.63;100875.53;5031351;28;20395;-78
2021/11/12 09:32:19;;;;;;;30.40;18.87;;;;;;;4.32;82.27;100877.06;5028979;28;20442;-79
2021/11/12 09:34:46;;;;;;;30.35;18.08;;;;;;;4.37;81.86;100864.75;5030873;28;20391;-79
2021/11/12 09:37:19;;;;;;;31.87;18.70;;;;;;;4.42;81.29;100864.97;5030930;28;20514;-79
2021/11/12 09:39:47;;;;;;;33.83;19.63;;;;;;;4.39;80.96;100862.69;5028847;28;21049;-79
2021/11/12 09:42:13;;;;;;;30.83;18.30;;;;;;;4.45;81.33;100864.56;5028933;28;20827;-79
2021/11/12 09:44:39;;;;;;;29.40;17.95;;;;;;;4.45;80.38;100858.38;5030074;28;20415;-78
2021/11/12 09:47:04;;;;;;;25.23;16.40;;;;;;;4.35;79.53;100856.03;5031075;28;20391;-79
2021/11/12 09:49:30;;;;;;;29.20;18.30;;;;;;;4.35;80.38;100849.84;5033019;28;20406;-78
2021/11/12 09:51:55;;;;;;;27.92;17.67;;;;;;;4.40;80.71;100839.34;5034969;28;20392;-78
2021/11/12 09:54:21;;;;;;;28.23;18.57;;;;;;;4.46;80.96;100835.88;5035093;28;20387;-78
2021/11/12 09:56:46;;;;;;;28.02;17.23;;;;;;;4.52;81.10;100830.56;5035027;28;20402;-79
2021/11/12 09:59:12;;;;;;;25.83;16.80;;;;;;;4.61;80.43;100834.75;5031611;28;20456;-79
2021/11/12 10:01:40;;;;;;;29.73;17.70;;;;;;;4.61;80.36;100829.38;5033707;28;20394;-79
2021/11/12 10:04:09;;;;;;;22.85;15.52;;;;;;;4.60;80.12;100824.22;5023500;28;20398;-78
2021/11/12 10:06:38;;;;;;;28.05;17.98;;;;;;;4.50;80.34;100821.91;5034816;28;20929;-79
2021/11/12 10:09:14;;;;;;;25.95;17.02;;;;;;;4.54;80.83;100820.47;5032935;28;20490;-79
2021/11/12 10:11:48;;;;;;;27.98;18.65;;;;;;;4.62;80.51;100806.06;5032477;28;20395;-79
2021/11/12 10:14:14;;;;;;;26.80;17.70;;;;;;;4.60;79.84;100810.81;5028289;28;20494;-79
2021/11/12 10:16:42;;;;;;;32.78;18.38;;;;;;;4.54;79.48;100806.22;5032137;28;20486;-79
2021/11/12 10:19:14;;;;;;;31.33;18.75;;;;;;;4.56;80.11;100812.22;5028791;28;20410;-79
2021/11/12 10:21:43;;;;;;;28.88;17.23;;;;;;;4.58;79.98;100815.53;5031808;28;20402;-79
2021/11/12 10:24:16;;;;;;;31.73;19.00;;;;;;;4.56;80.56;100810.38;5034610;28;20398;-79
2021/11/12 10:26:49;;;;;;;31.65;19.35;;;;;;;4.58;80.68;100808.31;5033712;28;20395;-78
2021/11/12 10:29:21;;;;;;;30.65;18.75;;;;;;;4.58;80.73;100805.63;5034100;28;20456;-78
2021/11/12 10:31:53;;;;;;;32.27;20.13;;;;;;;4.60;80.56;100808.94;5031004;28;20411;-78
2021/11/12 10:34:22;;;;;;;33.42;20.70;;;;;;;4.61;80.59;100805.22;5022042;28;20432;-79
2021/11/12 10:37:04;;;;;;;32.05;19.00;;;;;;;4.65;81.00;100805.66;5029971;28;20929;-78
2021/11/12 10:39:38;;;;;;;30.20;19.48;;;;;;;4.68;80.96;100799.88;5034406;28;20410;-78
2021/11/12 10:42:22;;;;;;;31.27;20.02;;;;;;;4.72;80.55;100793.09;5022414;28;20391;-79
2021/11/12 10:44:54;;;;;;;34.42;21.23;;;;;;;4.72;80.69;100793.94;5026566;28;20405;-78
2021/11/12 10:47:20;;;;;;;30.97;19.03;;;;;;;4.76;80.84;100791.69;5033953;28;20403;-78
2021/11/12 10:49:50;;;;;;;34.00;20.80;;;;;;;4.79;80.93;100793.13;5027930;28;20437;-79
2021/11/12 10:52:22;;;;;;;29.13;19.70;;;;;;;4.82;80.83;100788.19;5028811;28;20423;-78
2021/11/12 10:54:55;;;;;;;30.50;18.80;;;;;;;4.80;80.08;100782.22;5031741;28;20406;-78
2021/11/12 10:57:26;;;;;;;30.83;19.63;;;;;;;4.83;79.74;100779.13;5033946;28;20399;-78
2021/11/12 10:59:54;;;;;;;28.77;19.00;;;;;;;4.78;78.87;100776.19;5031731;28;20416;-79
2021/11/12 11:02:23;;;;;;;34.08;20.80;;;;;;;4.78;79.43;100773.50;5028833;28;20414;-79
2021/11/12 11:04:49;;;;;;;33.42;20.67;;;;;;;4.79;79.40;100767.13;5033957;28;20395;-80
2021/11/12 11:07:22;;;;;;;34.50;20.80;;;;;;;4.81;79.43;100762.38;5033779;28;20413;-79
2021/11/12 11:09:48;;;;;;;38.65;21.35;;;;;;;4.81;79.68;100764.25;5031559;28;20510;-80
2021/11/12 11:12:32;;;;;;;33.00;21.20;;;;;;;4.84;79.26;100769.22;5033305;28;20486;-79
2021/11/12 11:15:18;;;;;;;32.35;20.45;;;;;;;4.82;79.29;100771.25;5032180;28;20482;-79
2021/11/12 11:18:18;;;;;;;36.63;21.85;;;;;;;4.80;80.26;100763.41;5033662;28;20391;-79
2021/11/12 11:20:45;;;;;;;30.73;20.27;;;;;;;4.77;80.14;100757.63;5020213;28;20458;-79
2021/11/12 11:23:10;;;;;;;31.35;20.17;;;;;;;4.80;79.70;100752.69;5029600;28;20407;-79
2021/11/12 11:25:35;;;;;;;27.43;17.80;;;;;;;4.88;79.59;100744.44;5032488;28;20519;-79
2021/11/12 11:28:02;;;;;;;30.23;20.47;;;;;;;4.93;79.54;100741.97;5033124;28;20410;-79
2021/11/12 11:30:28;;;;;;;28.60;19.55;;;;;;;4.91;79.77;100745.88;5033836;28;20398;-79
2021/11/12 11:32:53;;;;;;;28.30;17.53;;;;;;;4.85;79.94;100741.31;5031002;28;20414;-79
2021/11/12 11:35:21;;;;;;;31.33;19.93;;;;;;;4.83;79.86;100738.84;5033093;28;20742;-80
2021/11/12 11:37:51;;;;;;;30.90;18.85;;;;;;;4.80;80.16;100739.25;5031244;28;20893;-81
2021/11/12 11:40:17;;;;;;;30.50;20.30;;;;;;;4.90;80.38;100728.97;5030695;28;20511;-79
2021/11/12 11:42:44;;;;;;;29.03;19.53;;;;;;;4.92;80.27;100729.56;5032524;28;20503;-79
2021/11/12 11:45:11;;;;;;;28.45;19.48;;;;;;;4.94;80.28;100724.03;5031654;28;20524;-79
2021/11/12 11:47:39;;;;;;;33.00;20.88;;;;;;;4.93;79.64;100735.78;5032358;28;20766;-79
2021/11/12 11:50:25;;;;;;;33.20;20.10;;;;;;;4.99;79.29;100737.66;5031218;28;20413;-79
2021/11/12 11:52:51;;;;;;;33.35;20.27;;;;;;;4.98;79.61;100741.38;5031754;28;20766;-79
2021/11/12 11:55:49;;;;;;;33.90;21.93;;;;;;;5.01;79.92;100736.41;5032337;28;20399;-78
2021/11/12 11:58:36;;;;;;;30.20;20.55;;;;;;;4.99;79.35;100737.66;5014166;28;20411;-79
2021/11/12 12:01:10;;;;;;;31.08;21.40;;;;;;;4.98;79.92;100733.31;5028726;28;20458;-79
2021/11/12 12:03:36;;;;;;;29.70;18.77;;;;;;;4.97;79.26;100729.00;5032138;28;20401;-79
2021/11/12 12:06:05;;;;;;;28.88;20.42;;;;;;;4.93;79.22;100725.88;5032323;28;20485;-78
2021/11/12 12:08:31;;;;;;;31.67;20.95;;;;;;;4.91;79.87;100721.72;5032421;28;20466;-79
2021/11/12 12:11:18;;;;;;;29.80;20.42;;;;;;;4.90;80.24;100714.69;5030699;28;20511;-79
2021/11/12 12:14:05;;;;;;;30.50;20.73;;;;;;;4.94;80.64;100710.59;5026394;28;20395;-81
2021/11/12 12:16:30;;;;;;;33.17;21.27;;;;;;;4.94;79.89;100703.34;5032380;28;20446;-80
2021/11/12 12:18:56;;;;;;;33.77;21.57;;;;;;;4.96;80.00;100695.94;5032517;28;20811;-80
2021/11/12 12:21:38;;;;;;;32.80;20.67;;;;;;;4.97;79.60;100697.56;5028565;28;20510;-79
2021/11/12 12:31:07;;;;;;;39.88;23.35;;;;;;;4.86;79.98;100682.06;5009230;28;20463;-80
2021/11/12 12:43:10;;;;;;;40.10;23.52;;;;;;;4.94;80.26;100671.09;5030789;28;20418;-80
2021/11/12 13:23:27;;;;;;;40.70;25.60;;;;;;;4.91;81.10;100679.56;5025534;28;20506;-81
2021/11/12 13:25:59;;;;;;;44.47;24.83;;;;;;;4.82;81.33;100672.75;5027246;28;20856;-81
2021/11/12 13:28:26;;;;;;;41.40;26.13;;;;;;;4.82;81.09;100675.44;5030927;28;20877;-80
2021/11/12 13:30:53;;;;;;;42.25;25.70;;;;;;;4.86;81.49;100670.47;5028037;28;20434;-80
2021/11/12 13:33:28;;;;;;;42.38;26.35;;;;;;;4.82;81.55;100663.84;5025466;28;20401;-80
2021/11/12 13:35:53;;;;;;;49.15;29.10;;;;;;;4.82;81.37;100661.16;5029385;28;20411;-80
2021/11/12 13:38:19;;;;;;;43.77;26.77;;;;;;;4.79;81.76;100648.16;5023000;28;20429;-80
2021/11/12 13:40:44;;;;;;;44.15;25.88;;;;;;;4.80;81.81;100653.34;5030350;28;20461;-79
2021/11/12 13:43:09;;;;;;;45.30;27.10;;;;;;;4.84;81.82;100640.34;5029837;28;20490;-80
2021/11/12 13:45:36;;;;;;;53.40;31.43;;;;;;;4.83;81.56;100650.25;5027811;28;20885;-80
2021/11/12 13:48:12;;;;;;;74.90;43.05;;;;;;;4.77;82.33;100653.75;5030330;28;20392;-80
2021/11/12 13:51:00;;;;;;;49.58;30.80;;;;;;;4.80;81.88;100672.13;5027720;28;20399;-80
2021/11/12 13:53:31;;;;;;;49.22;28.58;;;;;;;4.80;81.79;100663.25;5030881;28;20402;-80
2021/11/12 13:55:58;;;;;;;45.88;27.42;;;;;;;4.70;82.30;100669.81;5030500;28;20399;-79
2021/11/12 13:58:26;;;;;;;43.65;27.48;;;;;;;4.75;82.01;100668.38;5029318;28;20407;-80
2021/11/12 14:00:52;;;;;;;48.90;27.97;;;;;;;4.78;82.47;100670.66;5029728;28;20461;-80
2021/11/12 14:03:19;;;;;;;44.80;26.27;;;;;;;4.72;82.41;100654.34;5030865;28;20401;-79
2021/11/12 14:06:28;;;;;;;44.47;26.90;;;;;;;4.72;82.17;100661.56;5030829;28;20398;-80
2021/11/12 14:09:01;;;;;;;51.15;29.88;;;;;;;4.72;82.48;100657.03;5022957;28;20415;-79
2021/11/12 14:11:29;;;;;;;52.28;28.65;;;;;;;4.75;82.26;100655.78;5030914;28;20493;-79
2021/11/12 14:13:59;;;;;;;55.47;30.95;;;;;;;4.76;82.10;100653.94;5030665;28;20399;-79
2021/11/12 14:16:38;;;;;;;52.15;30.13;;;;;;;4.78;82.48;100654.53;5030367;28;20457;-80
2021/11/12 14:35:18;;;;;;;47.10;29.70;;;;;;;4.56;83.13;100656.53;5030295;28;20407;-78
2021/11/12 14:40:40;;;;;;;54.50;30.77;;;;;;;4.61;83.33;100656.78;5033955;28;20418;-78
2021/11/12 14:43:15;;;;;;;60.03;32.45;;;;;;;4.68;82.85;100650.38;5026853;28;20403;-82
2021/11/12 14:48:32;;;;;;;49.53;28.80;;;;;;;4.73;82.81;100649.78;5034094;28;20402;-79
2021/11/12 14:51:19;;;;;;;56.53;31.02;;;;;;;4.66;82.84;100649.78;5033499;28;21032;-78
2021/11/12 14:58:56;;;;;;;54.13;30.70;;;;;;;4.63;82.89;100646.66;5032396;28;20902;-78
2021/11/12 15:01:26;;;;;;;52.00;30.67;;;;;;;4.52;83.63;100650.75;5033310;28;20476;-80
2021/11/12 15:03:53;;;;;;;51.42;30.23;;;;;;;4.47;84.04;100655.91;5032891;28;20742;-79
2021/11/12 15:06:22;;;;;;;49.60;28.98;;;;;;;4.45;83.84;100649.06;5033258;28;20403;-79
2021/11/12 15:08:56;;;;;;;53.13;30.40;;;;;;;4.50;83.92;100649.31;5033767;28;20391;-78
2021/11/12 15:11:25;;;;;;;64.10;31.73;;;;;;;4.49;83.78;100647.63;5033313;28;20391;-80
2021/11/12 15:13:53;;;;;;;67.30;33.45;;;;;;;4.48;83.90;100640.63;5033213;28;20406;-79
2021/11/12 15:16:25;;;;;;;65.30;34.53;;;;;;;4.40;84.07;100632.75;5033208;28;20754;-78
2021/11/12 15:18:55;;;;;;;63.00;34.55;;;;;;;4.42;84.01;100628.00;5032227;28;20399;-79
2021/11/12 15:21:28;;;;;;;63.97;33.80;;;;;;;4.42;84.08;100623.47;5032470;28;20451;-79
2021/11/12 15:29:16;;;;;;;68.22;32.55;;;;;;;4.51;83.87;100616.88;5031336;28;20805;-78
2021/11/12 15:34:27;;;;;;;92.57;42.55;;;;;;;4.50;83.91;100617.94;5026750;28;21097;-78
2021/11/12 15:44:57;;;;;;;78.20;38.53;;;;;;;4.46;85.00;100613.16;5032412;28;20449;-79
2021/11/12 15:47:24;;;;;;;65.50;35.10;;;;;;;4.45;84.74;100606.13;5031436;28;20404;-79
2021/11/12 15:49:56;;;;;;;69.93;36.30;;;;;;;4.48;84.68;100603.88;5032186;28;20482;-78
2021/11/12 15:55:10;;;;;;;79.55;36.78;;;;;;;4.49;84.40;100610.06;5022677;28;20400;-79
2021/11/12 16:03:36;;;;;;;90.10;40.37;;;;;;;4.45;84.52;100598.06;5032094;28;20431;-79
2021/11/12 16:06:12;;;;;;;81.88;39.88;;;;;;;4.43;84.91;100595.63;5027082;28;20402;-78